Time;durP1;ratioP1;P1;durP2;ratioP2;P2;SDS_P1;SDS_P2;PMS_P1;PMS_P2;Temp;Humidity;BMP_temperature;BMP_pressure;BME280_temperature;BME280_humidity;BME280_pressure;Samples;Min_cycle;Max_cycle;Signal;HPM_P1;HPM_P2
2022/01/28 00:01:01;;;;;;;23.10;2.95;;;3.50;99.90;;;;;;5033158;28;20053;-82
2022/01/28 00:03:27;;;;;;;18.25;2.38;;;3.50;99.90;;;;;;5031895;28;20055;-82
2022/01/28 00:05:53;;;;;;;14.57;2.53;;;3.60;99.90;;;;;;5033438;28;20057;-82
2022/01/28 00:08:19;;;;;;;26.63;3.83;;;3.60;99.90;;;;;;5017767;28;20041;-82
2022/01/28 00:10:45;;;;;;;22.60;2.85;;;3.70;99.90;;;;;;5032157;28;20098;-82
2022/01/28 00:13:31;;;;;;;22.33;2.83;;;3.70;99.90;;;;;;5031725;28;20551;-82
2022/01/28 00:17:00;;;;;;;18.67;2.70;;;3.70;99.90;;;;;;5033227;28;20049;-82
2022/01/28 00:40:27;;;;;;;11.18;2.13;;;4.00;99.90;;;;;;5019146;28;20539;-82
2022/01/28 00:42:53;;;;;;;15.45;2.45;;;4.00;99.90;;;;;;5028207;28;20056;-82
2022/01/28 00:45:19;;;;;;;16.30;2.28;;;4.00;99.90;;;;;;5031975;28;20037;-82
2022/01/28 00:47:46;;;;;;;;;;;4.20;99.90;;;;;;5026057;28;20514;-82
2022/01/28 00:50:13;;;;;;;11.65;2.05;;;3.40;99.90;;;;;;5020263;28;19925;-82
2022/01/28 00:52:39;;;;;;;15.48;2.42;;;4.00;99.90;;;;;;5047572;28;20061;-82
2022/01/28 00:55:05;;;;;;;17.23;2.35;;;3.90;99.90;;;;;;5011970;28;20400;-82
2022/01/28 00:57:31;;;;;;;10.07;2.10;;;3.90;99.90;;;;;;5033643;28;20045;-82
2022/01/28 00:59:56;;;;;;;14.25;2.00;;;4.60;99.90;;;;;;5021831;28;20052;-82
2022/01/28 01:02:22;;;;;;;9.52;1.88;;;3.90;99.90;;;;;;5012434;28;20560;-82
2022/01/28 01:04:48;;;;;;;13.68;2.58;;;4.00;99.90;;;;;;4994199;28;20052;-82
2022/01/28 01:07:14;;;;;;;18.02;2.47;;;4.10;99.90;;;;;;4988779;28;20756;-82
2022/01/28 01:09:39;;;;;;;15.93;2.72;;;4.10;99.90;;;;;;5013396;28;20132;-81
2022/01/28 01:12:06;;;;;;;11.77;2.40;;;4.30;99.90;;;;;;4997278;28;20407;-82
2022/01/28 01:14:31;;;;;;;;;;;4.20;99.90;;;;;;5014457;28;20064;-82
2022/01/28 01:20:11;;;;;;;;;;;4.20;99.90;;;;;;5009721;28;20048;-82
2022/01/28 01:22:39;;;;;;;13.88;2.58;;;4.10;99.90;;;;;;5009081;28;19967;-82
2022/01/28 01:25:15;;;;;;;12.95;2.30;;;4.10;99.90;;;;;;5019465;28;20076;-82
2022/01/28 01:27:41;;;;;;;9.85;2.22;;;4.10;99.90;;;;;;5016463;28;20056;-82
2022/01/28 01:30:08;;;;;;;14.82;2.47;;;4.10;99.90;;;;;;5033386;28;20111;-82
2022/01/28 01:32:34;;;;;;;16.15;2.28;;;4.00;99.90;;;;;;5032868;28;20128;-82
2022/01/28 01:34:59;;;;;;;15.73;2.03;;;4.00;99.90;;;;;;5047140;28;20049;-82
2022/01/28 01:37:25;;;;;;;16.40;2.20;;;3.90;99.90;;;;;;5049764;28;20045;-82
2022/01/28 01:39:52;;;;;;;14.05;2.38;;;4.30;99.90;;;;;;5024021;28;20057;-82
2022/01/28 01:42:38;;;;;;;15.38;2.38;;;4.30;99.90;;;;;;5013191;28;20053;-82
2022/01/28 01:53:21;;;;;;;8.82;2.53;;;4.30;99.90;;;;;;5049056;28;20052;-82
2022/01/28 01:55:47;;;;;;;19.52;3.70;;;4.50;99.90;;;;;;5048864;28;20045;-82
2022/01/28 01:58:13;;;;;;;;;;;4.10;99.90;;;;;;5043446;28;20156;-82
2022/01/28 02:00:39;;;;;;;15.65;3.05;;;4.10;99.90;;;;;;5011292;28;19964;-82
2022/01/28 02:03:05;;;;;;;18.27;2.60;;;4.50;99.90;;;;;;5029215;28;20095;-82
2022/01/28 02:05:30;;;;;;;14.55;2.45;;;4.10;99.90;;;;;;5014801;28;20495;-82
2022/01/28 02:08:02;;;;;;;19.27;3.08;;;4.00;99.90;;;;;;5015574;28;20063;-82
2022/01/28 02:10:28;;;;;;;17.63;2.42;;;3.90;99.90;;;;;;5032344;28;20045;-82
2022/01/28 02:12:53;;;;;;;19.00;2.60;;;3.90;99.90;;;;;;4999394;28;20045;-82
2022/01/28 02:15:20;;;;;;;17.60;2.70;;;3.90;99.90;;;;;;4999342;28;20495;-82
2022/01/28 02:17:46;;;;;;;13.68;2.28;;;4.00;99.90;;;;;;4999410;28;20071;-82
2022/01/28 02:20:26;;;;;;;19.52;3.58;;;4.00;99.90;;;;;;5030731;28;20472;-82
2022/01/28 02:22:54;;;;;;;18.63;3.05;;;4.10;99.90;;;;;;5032399;28;20464;-82
2022/01/28 02:25:26;;;;;;;15.13;3.58;;;4.20;99.90;;;;;;5016506;28;20126;-82
2022/01/28 02:27:52;;;;;;;13.90;3.03;;;4.20;99.90;;;;;;5013219;28;20037;-82
2022/01/28 02:30:18;;;;;;;17.95;2.70;;;4.20;99.90;;;;;;5029376;28;20561;-81
2022/01/28 02:32:47;;;;;;;25.02;3.30;;;4.70;99.90;;;;;;5015173;28;20048;-81
2022/01/28 02:35:13;;;;;;;18.67;3.10;;;4.10;99.90;;;;;;5030657;28;20060;-82
2022/01/28 02:37:39;;;;;;;22.23;2.75;;;4.10;99.90;;;;;;5032594;28;20392;-82
2022/01/28 02:40:05;;;;;;;19.20;2.55;;;4.10;99.90;;;;;;5019492;28;20053;-82
2022/01/28 02:42:59;;;;;;;29.65;3.03;;;4.00;99.90;;;;;;5012865;28;20442;-82
2022/01/28 02:45:27;;;;;;;17.35;2.67;;;4.00;99.90;;;;;;5022190;28;20552;-82
2022/01/28 02:47:58;;;;;;;22.48;2.70;;;4.10;99.90;;;;;;5027013;28;20042;-82
2022/01/28 02:50:26;;;;;;;24.38;2.88;;;4.10;99.90;;;;;;4994813;28;20059;-82
2022/01/28 02:53:03;;;;;;;14.05;2.65;;;4.10;99.90;;;;;;4995974;28;20080;-82
2022/01/28 02:55:31;;;;;;;16.13;3.45;;;4.10;99.90;;;;;;5012889;28;20051;-82
2022/01/28 02:58:14;;;;;;;21.70;3.45;;;4.30;99.90;;;;;;5015907;28;20057;-81
2022/01/28 03:00:41;;;;;;;21.73;3.10;;;4.60;99.90;;;;;;5004118;28;20049;-81
2022/01/28 03:03:07;;;;;;;15.40;2.67;;;4.10;99.90;;;;;;5031275;28;20152;-82
2022/01/28 03:05:34;;;;;;;13.77;2.35;;;4.20;99.90;;;;;;4994674;28;20053;-82
2022/01/28 03:08:03;;;;;;;20.38;3.58;;;4.20;99.90;;;;;;4995645;28;20054;-82
2022/01/28 03:15:38;;;;;;;19.27;2.92;;;4.40;99.90;;;;;;5005066;28;20115;-82
2022/01/28 03:18:14;;;;;;;19.20;3.00;;;4.60;99.90;;;;;;5025294;28;20075;-82
2022/01/28 03:21:07;;;;;;;17.10;3.00;;;4.30;99.90;;;;;;4995534;28;20060;-82
2022/01/28 03:23:31;;;;;;;21.73;3.40;;;4.40;99.90;;;;;;5011959;28;20283;-82
2022/01/28 03:25:57;;;;;;;17.38;2.50;;;5.00;99.90;;;;;;5035334;28;20049;-82
2022/01/28 03:28:23;;;;;;;16.95;2.88;;;4.60;99.90;;;;;;5019235;28;20040;-82
2022/01/28 03:30:48;;;;;;;21.55;3.00;;;4.50;99.90;;;;;;5002247;28;20148;-81
2022/01/28 03:33:14;;;;;;;16.45;3.03;;;4.60;99.90;;;;;;5035145;28;20102;-82
2022/01/28 03:35:40;;;;;;;23.60;3.17;;;4.20;99.90;;;;;;5017229;28;20048;-82
2022/01/28 03:38:11;;;;;;;16.38;2.78;;;4.20;99.90;;;;;;5018619;28;20103;-82
2022/01/28 03:40:37;;;;;;;15.50;2.63;;;4.20;99.90;;;;;;5004159;28;20096;-82
2022/01/28 03:43:03;;;;;;;;;;;4.20;99.90;;;;;;5002151;28;20143;-82
2022/01/28 03:45:29;;;;;;;21.60;2.60;;;4.20;99.90;;;;;;5015171;28;20000;-82
2022/01/28 03:47:55;;;;;;;18.30;3.17;;;4.10;99.90;;;;;;5015087;28;20598;-82
2022/01/28 03:50:21;;;;;;;15.52;2.55;;;4.00;99.90;;;;;;4997158;28;20668;-82
2022/01/28 03:52:46;;;;;;;16.77;2.65;;;3.90;99.90;;;;;;5015583;28;20061;-81
2022/01/28 03:55:12;;;;;;;22.33;3.30;;;4.20;99.90;;;;;;5014992;28;20053;-82
2022/01/28 03:57:38;;;;;;;20.73;3.17;;;3.70;99.90;;;;;;4982919;28;20060;-82
2022/01/28 04:00:05;;;;;;;18.45;2.83;;;3.60;99.90;;;;;;4998091;28;20468;-81
2022/01/28 04:02:35;;;;;;;18.15;2.50;;;3.60;99.90;;;;;;5001067;28;20503;-82
2022/01/28 04:13:17;;;;;;;13.43;2.53;;;3.70;99.90;;;;;;5034429;28;20652;-82
2022/01/28 04:16:15;;;;;;;21.38;3.20;;;3.70;99.90;;;;;;5018589;28;20045;-82
2022/01/28 04:18:34;;;;;;;17.55;3.50;;;4.20;99.90;;;;;;5012437;28;20053;-82
2022/01/28 04:21:00;;;;;;;16.95;2.90;;;4.00;99.90;;;;;;5012452;28;20080;-82
2022/01/28 04:23:25;;;;;;;17.02;2.35;;;3.70;99.90;;;;;;5014954;28;20133;-82
2022/01/28 04:25:51;;;;;;;30.65;4.18;;;3.70;99.90;;;;;;4998791;28;20472;-82
2022/01/28 04:28:16;;;;;;;21.58;3.78;;;3.70;99.90;;;;;;4997861;28;20067;-82
2022/01/28 04:30:42;;;;;;;25.23;3.28;;;4.20;99.90;;;;;;5014428;28;20049;-82
2022/01/28 04:33:08;;;;;;;22.33;3.42;;;3.70;99.90;;;;;;5013901;28;20045;-82
2022/01/28 04:35:34;;;;;;;18.45;2.78;;;3.70;99.90;;;;;;5019307;28;20072;-82
2022/01/28 04:40:33;;;;;;;29.27;3.95;;;3.80;99.90;;;;;;5001270;28;20057;-82
2022/01/28 04:45:58;;;;;;;24.55;3.75;;;3.50;99.90;;;;;;5034137;28;20148;-82
2022/01/28 04:53:27;;;;;;;21.33;2.90;;;3.40;99.90;;;;;;5032756;28;20049;-82
2022/01/28 05:01:11;;;;;;;25.58;3.60;;;3.50;99.90;;;;;;5033563;28;20162;-82
2022/01/28 05:09:42;;;;;;;24.15;2.67;;;3.90;99.90;;;;;;5001285;28;20060;-82
2022/01/28 05:23:20;;;;;;;24.63;4.15;;;3.70;99.90;;;;;;5013459;28;20144;-82
2022/01/28 05:28:22;;;;;;;12.82;2.70;;;4.10;99.90;;;;;;5013241;28;20057;-82
2022/01/28 05:30:48;;;;;;;20.83;3.03;;;3.60;99.90;;;;;;4997352;28;20555;-83
2022/01/28 05:33:14;;;;;;;22.08;3.25;;;3.50;99.90;;;;;;5004831;28;20132;-83
2022/01/28 05:35:40;;;;;;;18.90;4.00;;;3.70;99.90;;;;;;5031693;28;20071;-83
2022/01/28 05:38:06;;;;;;;18.52;3.00;;;3.40;99.90;;;;;;5032464;28;20072;-83
2022/01/28 05:40:32;;;;;;;28.38;3.80;;;3.30;99.90;;;;;;5016892;28;20212;-83
2022/01/28 05:42:57;;;;;;;22.15;3.65;;;3.20;99.90;;;;;;5016575;28;20060;-83
2022/01/28 05:45:23;;;;;;;19.33;3.45;;;3.30;99.90;;;;;;4999391;28;20052;-82
2022/01/28 05:47:49;;;;;;;16.92;2.67;;;3.10;99.90;;;;;;5016579;28;20056;-82
2022/01/28 05:50:14;;;;;;;34.95;4.28;;;3.00;99.90;;;;;;5014457;28;20052;-82
2022/01/28 05:52:40;;;;;;;19.42;3.35;;;3.00;99.90;;;;;;4999838;28;20052;-82
2022/01/28 05:55:06;;;;;;;19.38;3.35;;;3.30;99.90;;;;;;4999639;28;20110;-82
2022/01/28 05:57:32;;;;;;;;;;;3.00;99.90;;;;;;5010398;28;20060;-82
2022/01/28 05:59:57;;;;;;;27.88;3.60;;;2.90;99.90;;;;;;5012072;28;19924;-82
2022/01/28 06:02:23;;;;;;;22.45;3.20;;;2.90;99.90;;;;;;5012398;28;20045;-82
2022/01/28 06:04:49;;;;;;;23.20;3.15;;;2.90;99.90;;;;;;5031623;28;20059;-82
2022/01/28 06:07:15;;;;;;;20.63;3.65;;;2.90;99.90;;;;;;5024768;28;20408;-82
2022/01/28 06:09:40;;;;;;;40.90;4.70;;;2.80;99.90;;;;;;5025379;28;20049;-82
2022/01/28 06:12:07;;;;;;;23.30;3.10;;;2.90;99.90;;;;;;5016577;28;20056;-82
2022/01/28 06:14:33;;;;;;;20.77;3.33;;;2.90;99.90;;;;;;5015346;28;20078;-82
2022/01/28 06:16:58;;;;;;;18.08;2.90;;;3.00;99.90;;;;;;4996540;28;20053;-82
2022/01/28 06:19:24;;;;;;;22.45;3.10;;;3.60;99.90;;;;;;4979980;28;20076;-82
2022/01/28 06:21:50;;;;;;;24.73;3.53;;;3.00;99.90;;;;;;4994864;28;20142;-82
2022/01/28 06:24:15;;;;;;;25.25;3.47;;;3.10;99.90;;;;;;5031615;28;20045;-82
2022/01/28 06:26:41;;;;;;;17.75;3.65;;;3.10;99.90;;;;;;5032838;28;20044;-82
2022/01/28 06:29:07;;;;;;;25.20;3.53;;;3.10;99.90;;;;;;5032329;28;20507;-82
2022/01/28 06:31:33;;;;;;;25.73;3.35;;;3.20;99.90;;;;;;5031742;28;20056;-82
2022/01/28 06:33:59;;;;;;;23.08;4.40;;;3.50;99.90;;;;;;5030404;28;20395;-82
2022/01/28 06:36:25;;;;;;;23.38;3.33;;;3.40;99.90;;;;;;5017501;28;20045;-82
2022/01/28 06:38:50;;;;;;;25.30;3.97;;;3.40;99.90;;;;;;5009581;28;20053;-82
2022/01/28 06:41:16;;;;;;;23.45;3.60;;;3.40;99.90;;;;;;5031605;28;20100;-82
2022/01/28 06:43:42;;;;;;;20.77;3.60;;;3.60;99.90;;;;;;5032735;28;20049;-82
2022/01/28 06:46:07;;;;;;;27.92;4.10;;;3.60;99.90;;;;;;5015686;28;20444;-82
2022/01/28 06:48:33;;;;;;;24.20;4.22;;;3.70;99.90;;;;;;5031921;28;20222;-82
2022/01/28 06:50:59;;;;;;;21.80;3.15;;;4.30;99.90;;;;;;5014075;28;20057;-82
2022/01/28 06:53:25;;;;;;;22.23;3.55;;;3.80;99.90;;;;;;4999077;28;20089;-82
2022/01/28 06:55:50;;;;;;;22.08;3.03;;;3.90;99.90;;;;;;5047836;28;20487;-82
2022/01/28 06:58:16;;;;;;;22.10;3.45;;;3.90;99.90;;;;;;5026477;28;20515;-82
2022/01/28 07:00:42;;;;;;;17.60;3.20;;;4.30;99.90;;;;;;5018837;28;20098;-82
2022/01/28 07:03:10;;;;;;;19.85;4.25;;;3.90;99.90;;;;;;5019487;28;20064;-82
2022/01/28 07:05:37;;;;;;;24.50;3.40;;;4.00;99.90;;;;;;5033917;28;20036;-82
2022/01/28 07:08:04;;;;;;;20.75;3.97;;;4.00;99.90;;;;;;5019535;28;20048;-82
2022/01/28 07:10:30;;;;;;;19.13;2.90;;;4.00;99.90;;;;;;5035486;28;20045;-81
2022/01/28 07:12:56;;;;;;;22.50;3.20;;;4.20;99.90;;;;;;5019750;28;20049;-82
2022/01/28 07:15:24;;;;;;;25.35;3.75;;;4.00;99.90;;;;;;5022747;28;20057;-82
2022/01/28 07:17:51;;;;;;;27.48;3.55;;;4.30;99.90;;;;;;5034429;28;20788;-82
2022/01/28 07:20:17;;;;;;;27.00;4.35;;;4.10;99.90;;;;;;5033582;28;20045;-81
2022/01/28 07:22:43;;;;;;;22.48;3.55;;;4.00;99.90;;;;;;5036053;28;20064;-81
2022/01/28 07:25:09;;;;;;;29.17;3.63;;;4.00;99.90;;;;;;5019495;28;20041;-82
2022/01/28 07:27:35;;;;;;;21.05;3.67;;;4.00;99.90;;;;;;5018767;28;20057;-81
2022/01/28 07:30:00;;;;;;;15.63;2.97;;;3.90;99.90;;;;;;5002545;28;20052;-81
2022/01/28 07:32:26;;;;;;;27.00;4.15;;;3.80;99.90;;;;;;5018554;28;20064;-81
2022/01/28 07:34:52;;;;;;;24.52;3.63;;;3.70;99.90;;;;;;5017580;28;20060;-81
2022/01/28 07:37:18;;;;;;;25.05;3.42;;;3.70;99.90;;;;;;5018706;28;20044;-82
2022/01/28 07:39:45;;;;;;;18.30;3.67;;;3.70;99.90;;;;;;5034707;28;20053;-81
2022/01/28 07:42:10;;;;;;;20.33;3.10;;;3.80;99.90;;;;;;5035632;28;20057;-81
2022/01/28 07:44:36;;;;;;;21.48;4.53;;;3.60;99.90;;;;;;5031141;28;20055;-81
2022/01/28 07:47:03;;;;;;;18.60;3.35;;;3.50;99.90;;;;;;5006146;28;20503;-81
2022/01/28 07:49:29;;;;;;;15.55;3.40;;;3.40;99.90;;;;;;5051120;28;20161;-82
2022/01/28 07:51:54;;;;;;;19.10;2.95;;;3.40;99.90;;;;;;5033317;28;20552;-81
2022/01/28 07:54:20;;;;;;;17.83;3.55;;;3.30;99.90;;;;;;5018863;28;20044;-82
2022/01/28 07:56:47;;;;;;;22.85;3.53;;;3.20;99.90;;;;;;5032499;28;20048;-81
2022/01/28 07:59:13;;;;;;;20.83;3.40;;;3.20;99.90;;;;;;5027776;28;20459;-81
2022/01/28 08:01:39;;;;;;;24.52;4.10;;;3.00;99.90;;;;;;5030283;28;20081;-82
2022/01/28 08:04:05;;;;;;;23.25;4.03;;;3.70;99.90;;;;;;5015378;28;20063;-81
2022/01/28 08:06:30;;;;;;;16.55;4.07;;;2.80;99.90;;;;;;5029540;28;20077;-81
2022/01/28 08:08:59;;;;;;;17.90;3.22;;;3.00;99.90;;;;;;5030847;28;20048;-81
2022/01/28 08:11:24;;;;;;;23.83;3.40;;;2.70;99.90;;;;;;5032142;28;20702;-82
2022/01/28 08:13:50;;;;;;;28.40;4.10;;;2.60;99.90;;;;;;5015191;28;20052;-81
2022/01/28 08:16:16;;;;;;;19.63;3.20;;;2.60;99.90;;;;;;5030450;28;20041;-81
2022/01/28 08:18:41;;;;;;;22.63;2.95;;;2.60;99.90;;;;;;5017110;28;20040;-82
2022/01/28 08:21:07;;;;;;;21.13;3.20;;;3.20;99.90;;;;;;5016185;28;20049;-81
2022/01/28 08:23:33;;;;;;;24.15;3.13;;;2.60;99.90;;;;;;5034451;28;20045;-81
2022/01/28 08:25:59;;;;;;;17.05;3.60;;;2.70;99.90;;;;;;5018541;28;20119;-81
2022/01/28 08:28:25;;;;;;;21.85;3.65;;;3.10;99.90;;;;;;5017907;28;20539;-83
2022/01/28 08:30:50;;;;;;;25.48;3.10;;;2.90;99.90;;;;;;5017665;28;20084;-81
2022/01/28 08:33:16;;;;;;;19.10;3.33;;;3.10;99.90;;;;;;5050830;28;20060;-82
2022/01/28 08:35:47;;;;;;;27.42;4.40;;;3.10;99.90;;;;;;5009514;28;20084;-81
2022/01/28 08:38:17;;;;;;;19.88;3.72;;;3.80;99.90;;;;;;5023202;28;20139;-82
2022/01/28 08:40:43;;;;;;;23.33;3.17;;;3.40;99.90;;;;;;5031320;28;20052;-81
2022/01/28 08:43:09;;;;;;;20.50;4.43;;;3.50;99.90;;;;;;5038089;28;20373;-82
2022/01/28 08:45:35;;;;;;;22.88;2.92;;;3.50;99.90;;;;;;5051845;28;20113;-82
2022/01/28 08:48:00;;;;;;;19.88;3.63;;;4.50;99.90;;;;;;5036569;28;20129;-82
2022/01/28 08:50:26;;;;;;;23.42;3.22;;;3.70;99.90;;;;;;4997758;28;20520;-82
2022/01/28 08:52:52;;;;;;;26.92;4.40;;;3.70;99.90;;;;;;5049252;28;20044;-80
2022/01/28 08:55:18;;;;;;;28.90;5.57;;;4.00;99.90;;;;;;5019273;28;20441;-82
2022/01/28 08:57:44;;;;;;;20.33;3.80;;;3.70;99.90;;;;;;5035547;28;20057;-82
2022/01/28 09:00:19;;;;;;;;;;;3.70;99.90;;;;;;5044898;28;20047;-82
2022/01/28 09:02:45;;;;;;;17.67;3.60;;;3.70;99.90;;;;;;5034425;28;19932;-82
2022/01/28 09:05:11;;;;;;;33.28;4.05;;;3.70;99.90;;;;;;5035044;28;20893;-82
2022/01/28 09:07:36;;;;;;;19.70;3.33;;;3.70;99.90;;;;;;5053304;28;20102;-81
2022/01/28 09:10:10;;;;;;;20.52;3.55;;;3.70;99.90;;;;;;5020537;28;20049;-80
2022/01/28 09:12:49;;;;;;;19.85;3.58;;;3.70;99.90;;;;;;5050099;28;20403;-81
2022/01/28 09:15:15;;;;;;;26.70;3.28;;;3.70;99.90;;;;;;5033377;28;20088;-83
2022/01/28 09:17:41;;;;;;;24.83;3.35;;;4.50;99.90;;;;;;5016718;28;20135;-83
2022/01/28 09:20:08;;;;;;;23.40;3.55;;;3.80;99.90;;;;;;5022470;28;20059;-87
2022/01/28 09:22:34;;;;;;;28.98;4.00;;;3.80;99.90;;;;;;5032123;28;20049;-82
2022/01/28 09:24:59;;;;;;;18.77;2.92;;;3.80;99.90;;;;;;5046702;28;20044;-82
2022/01/28 09:27:25;;;;;;;23.80;3.53;;;3.90;99.90;;;;;;5043604;28;20044;-82
2022/01/28 09:29:51;;;;;;;22.50;3.08;;;4.00;99.90;;;;;;5025193;28;20041;-82
2022/01/28 09:32:16;;;;;;;19.80;3.08;;;4.00;99.90;;;;;;5032100;28;20049;-82
2022/01/28 09:34:44;;;;;;;20.73;3.70;;;4.10;99.90;;;;;;5041745;28;20134;-82
2022/01/28 09:37:12;;;;;;;23.48;3.30;;;4.20;99.90;;;;;;5025860;28;20037;-82
2022/01/28 09:39:43;;;;;;;19.15;3.35;;;4.30;99.90;;;;;;5013292;28;20060;-82
2022/01/28 09:42:19;;;;;;;17.27;3.25;;;4.50;99.90;;;;;;5030724;28;20570;-82
2022/01/28 09:44:46;;;;;;;;;;;4.60;99.90;;;;;;5012134;28;20480;-82
2022/01/28 09:47:12;;;;;;;25.27;3.50;;;4.90;99.90;;;;;;5028165;28;19928;-82
2022/01/28 09:49:39;;;;;;;25.42;3.63;;;4.90;99.90;;;;;;5028185;28;20116;-82
2022/01/28 09:52:07;;;;;;;18.52;2.90;;;5.10;99.90;;;;;;5012434;28;20135;-82
2022/01/28 09:54:34;;;;;;;20.35;3.15;;;5.30;99.90;;;;;;5029883;28;20068;-81
2022/01/28 09:57:01;;;;;;;27.83;3.15;;;5.40;99.90;;;;;;5028927;28;20050;-78
2022/01/28 09:59:27;;;;;;;21.33;3.38;;;5.50;99.90;;;;;;5028597;28;20042;-83
2022/01/28 10:01:54;;;;;;;25.02;4.20;;;5.60;99.90;;;;;;5028046;28;20082;-83
2022/01/28 10:04:21;;;;;;;21.00;3.63;;;5.60;99.90;;;;;;5022678;28;20066;-82
2022/01/28 10:06:47;;;;;;;25.02;3.42;;;5.70;99.90;;;;;;5016182;28;20418;-83
2022/01/28 10:09:16;;;;;;;23.38;3.63;;;5.60;99.90;;;;;;5026702;28;20048;-83
2022/01/28 10:11:45;;;;;;;19.55;3.28;;;5.60;99.90;;;;;;5033563;28;20057;-82
2022/01/28 10:14:21;;;;;;;20.27;4.88;;;5.60;99.90;;;;;;5027034;28;20051;-83
2022/01/28 10:16:59;;;;;;;18.25;3.58;;;5.60;99.90;;;;;;5047589;28;20144;-83
2022/01/28 10:19:26;;;;;;;23.38;3.38;;;5.60;99.90;;;;;;5048641;28;20145;-82
2022/01/28 10:21:54;;;;;;;17.42;3.28;;;5.60;99.90;;;;;;5014755;28;20079;-84
2022/01/28 10:24:25;;;;;;;20.30;3.05;;;5.70;99.90;;;;;;5022418;28;20054;-82
2022/01/28 10:27:06;;;;;;;23.13;3.45;;;5.70;99.90;;;;;;5015292;28;20819;-81
2022/01/28 10:29:37;;;;;;;26.92;4.35;;;5.70;99.90;;;;;;5021853;28;20046;-81
2022/01/28 10:32:05;;;;;;;24.45;4.05;;;5.70;99.90;;;;;;5020662;28;20046;-86
2022/01/28 10:34:33;;;;;;;32.45;4.22;;;5.70;99.90;;;;;;5011390;28;20060;-83
2022/01/28 10:37:08;;;;;;;20.63;3.47;;;5.70;99.90;;;;;;5022544;28;20076;-84
2022/01/28 10:40:09;;;;;;;31.35;4.22;;;5.70;99.90;;;;;;5028886;28;20056;-83
2022/01/28 10:42:39;;;;;;;21.05;4.05;;;5.70;99.90;;;;;;5028870;28;20516;-83
2022/01/28 10:45:12;;;;;;;21.85;4.03;;;5.70;99.90;;;;;;5021848;28;20058;-83
2022/01/28 10:47:42;;;;;;;19.90;2.97;;;5.80;99.90;;;;;;5012515;28;20493;-83
2022/01/28 10:50:31;;;;;;;29.42;3.97;;;5.80;99.90;;;;;;5020322;28;20046;-83
2022/01/28 10:53:07;;;;;;;24.42;3.30;;;5.90;99.90;;;;;;5008846;28;20046;-83
2022/01/28 10:55:43;;;;;;;;;;;6.10;99.90;;;;;;5010028;28;20504;-83
2022/01/28 10:58:32;;;;;;;20.23;3.40;;;6.20;99.90;;;;;;5009203;28;19968;-84
2022/01/28 11:00:59;;;;;;;19.48;3.22;;;6.20;99.90;;;;;;4991843;28;20153;-83
2022/01/28 11:03:28;;;;;;;24.27;3.67;;;6.30;99.90;;;;;;4992833;28;20053;-83
2022/01/28 11:05:59;;;;;;;22.33;3.42;;;6.30;99.90;;;;;;5006807;28;20133;-82
2022/01/28 11:08:26;;;;;;;26.90;3.67;;;6.30;99.90;;;;;;4993153;28;20546;-83
2022/01/28 11:10:52;;;;;;;20.33;3.60;;;6.30;99.90;;;;;;5019062;28;20065;-83
2022/01/28 11:13:18;;;;;;;;;;;6.30;99.90;;;;;;5009402;28;20049;-83
2022/01/28 11:15:45;;;;;;;23.23;3.53;;;6.30;99.90;;;;;;5008996;28;20395;-83
2022/01/28 11:18:11;;;;;;;27.92;3.72;;;6.40;99.90;;;;;;5008705;28;20057;-82
2022/01/28 11:20:49;;;;;;;23.73;3.17;;;6.50;99.90;;;;;;4990451;28;20108;-83
2022/01/28 11:23:21;;;;;;;15.95;2.50;;;6.70;99.90;;;;;;5009096;28;20045;-83
2022/01/28 11:26:11;;;;;;;25.70;3.10;;;6.90;99.90;;;;;;5008778;28;20046;-82
2022/01/28 11:28:50;;;;;;;26.08;4.13;;;6.90;99.90;;;;;;4993026;28;20077;-83
2022/01/28 11:31:41;;;;;;;27.27;3.22;;;6.90;99.90;;;;;;5022395;28;20046;-88
2022/01/28 11:34:27;;;;;;;23.05;3.25;;;6.90;99.90;;;;;;5018108;28;20045;-83
2022/01/28 11:36:58;;;;;;;27.08;3.25;;;7.00;99.90;;;;;;5019255;28;20050;-82
2022/01/28 11:39:32;;;;;;;17.17;3.22;;;6.90;99.90;;;;;;5016646;28;20497;-83
2022/01/28 11:41:59;;;;;;;25.23;4.47;;;7.00;99.90;;;;;;5006402;28;20519;-83
2022/01/28 11:44:43;;;;;;;22.20;2.90;;;7.00;99.90;;;;;;5023464;28;20057;-83
2022/01/28 11:47:20;;;;;;;25.13;3.47;;;7.00;99.90;;;;;;5014637;28;20056;-77
2022/01/28 11:49:53;;;;;;;19.08;3.40;;;7.00;99.90;;;;;;5018540;28;20041;-83
2022/01/28 11:52:37;;;;;;;19.52;3.65;;;7.00;99.90;;;;;;5016802;28;20053;-83
2022/01/28 11:55:15;;;;;;;19.52;2.70;;;7.10;99.90;;;;;;5025405;28;20044;-83
2022/01/28 11:57:55;;;;;;;24.17;3.25;;;7.20;99.90;;;;;;5048201;28;20500;-83
2022/01/28 12:00:26;;;;;;;23.23;3.47;;;7.20;99.90;;;;;;5005647;28;20053;-83
2022/01/28 12:02:53;;;;;;;15.68;2.83;;;7.20;99.90;;;;;;5018135;28;20120;-82
2022/01/28 12:05:31;;;;;;;24.08;4.32;;;6.90;99.90;;;;;;5018336;28;20065;-83
2022/01/28 12:08:03;;;;;;;21.73;3.58;;;6.80;99.90;;;;;;5019864;28;20037;-82
2022/01/28 12:10:31;;;;;;;22.50;3.33;;;6.80;99.90;;;;;;5019456;28;20055;-83
2022/01/28 12:12:59;;;;;;;25.50;3.67;;;7.10;99.90;;;;;;5003584;28;20049;-83
2022/01/28 12:15:29;;;;;;;23.50;3.65;;;7.40;99.90;;;;;;5018958;28;20575;-83
2022/01/28 12:18:06;;;;;;;20.33;3.35;;;7.70;99.90;;;;;;5023823;28;20408;-83
2022/01/28 12:20:50;;;;;;;27.50;3.85;;;8.00;99.90;;;;;;4993635;28;20507;-83
2022/01/28 12:23:19;;;;;;;25.58;3.30;;;8.10;99.90;;;;;;5021944;28;20515;-83
2022/01/28 12:25:45;;;;;;;19.98;3.42;;;8.00;99.90;;;;;;5040996;28;20053;-83
2022/01/28 12:28:11;;;;;;;17.13;3.47;;;8.00;99.90;;;;;;5025531;28;20050;-79
2022/01/28 12:30:38;;;;;;;23.45;3.17;;;8.50;99.90;;;;;;5038724;28;20122;-85
2022/01/28 12:33:03;;;;;;;23.10;4.07;;;8.50;99.90;;;;;;5044602;28;20170;-84
2022/01/28 12:35:29;;;;;;;22.95;3.22;;;8.40;99.90;;;;;;5019086;28;20496;-83
2022/01/28 12:38:03;;;;;;;25.65;3.35;;;8.30;99.90;;;;;;5014298;28;20145;-80
2022/01/28 12:40:35;;;;;;;17.50;3.28;;;8.30;99.90;;;;;;5041737;28;20064;-81
2022/01/28 12:43:04;;;;;;;15.27;2.80;;;8.30;99.90;;;;;;5047159;28;20049;-82
2022/01/28 12:45:30;;;;;;;17.08;3.17;;;8.70;99.90;;;;;;5010085;28;20041;-87
2022/01/28 12:47:56;;;;;;;20.65;3.83;;;9.10;99.90;;;;;;5012652;28;20492;-81
2022/01/28 12:50:22;;;;;;;17.98;3.33;;;9.00;99.90;;;;;;5024092;28;20046;-87
2022/01/28 12:52:49;;;;;;;18.27;2.92;;;8.90;99.90;;;;;;4995024;28;20050;-86
2022/01/28 12:55:14;;;;;;;;;;;8.70;99.90;;;;;;5010886;28;20068;-86
2022/01/28 12:57:44;;;;;;;26.60;3.67;;;8.50;99.90;;;;;;4994961;28;20019;-87
2022/01/28 13:00:11;;;;;;;22.13;3.17;;;8.40;99.90;;;;;;5010368;28;20050;-88
2022/01/28 13:02:37;;;;;;;15.50;2.75;;;8.60;99.90;;;;;;5011080;28;20496;-85
2022/01/28 13:10:33;;;;;;;15.98;3.13;;;8.70;99.90;;;;;;5018926;28;20061;-86
2022/01/28 13:13:10;;;;;;;15.90;2.95;;;8.50;99.90;;;;;;5029931;28;20060;-85
2022/01/28 13:15:37;;;;;;;19.77;3.80;;;8.30;99.90;;;;;;5014408;28;20088;-87
2022/01/28 13:18:04;;;;;;;16.48;2.95;;;8.40;99.90;;;;;;5030144;28;20052;-86
2022/01/28 13:20:41;;;;;;;19.58;3.28;;;8.70;99.90;;;;;;5010684;28;20050;-87
2022/01/28 13:23:09;;;;;;;22.25;2.90;;;9.00;99.90;;;;;;5010314;28;20435;-87
2022/01/28 13:25:35;;;;;;;12.73;3.05;;;9.40;99.90;;;;;;5011408;28;20057;-87
2022/01/28 13:28:04;;;;;;;;;;;9.80;99.90;;;;;;5054252;28;20068;-87
2022/01/28 13:30:38;;;;;;;13.68;2.72;;;10.10;99.90;;;;;;5005403;28;20331;-87
2022/01/28 13:33:09;;;;;;;15.63;3.10;;;10.30;99.90;;;;;;5006277;28;20512;-87
2022/01/28 13:35:37;;;;;;;17.48;3.00;;;10.30;99.90;;;;;;5028466;28;20390;-87
2022/01/28 13:38:14;;;;;;;24.08;3.28;;;10.00;99.90;;;;;;5029573;28;20136;-87
2022/01/28 13:40:40;;;;;;;20.50;3.15;;;9.70;99.90;;;;;;5029443;28;20080;-87
2022/01/28 13:43:10;;;;;;;14.70;2.78;;;9.50;99.90;;;;;;5013058;28;20096;-87
2022/01/28 13:45:43;;;;;;;20.77;2.85;;;9.40;99.90;;;;;;5029436;28;20061;-87
2022/01/28 13:48:21;;;;;;;17.15;2.90;;;9.60;99.90;;;;;;5029234;28;20042;-87
2022/01/28 13:50:51;;;;;;;19.52;2.72;;;9.80;99.90;;;;;;5028103;28;20049;-85
2022/01/28 13:55:54;;;;;;;17.55;2.95;;;9.80;99.90;;;;;;5010762;28;20556;-87
2022/01/28 13:58:20;;;;;;;18.17;3.35;;;9.90;99.90;;;;;;5009420;28;20049;-86
2022/01/28 14:00:49;;;;;;;18.33;3.13;;;10.00;99.90;;;;;;5002271;28;20045;-77
2022/01/28 14:03:26;;;;;;;15.65;2.88;;;9.70;99.90;;;;;;5015633;28;20054;-79
2022/01/28 14:06:02;;;;;;;16.88;3.40;;;9.30;99.90;;;;;;5022044;28;20060;-82
2022/01/28 14:08:38;;;;;;;23.13;3.17;;;8.90;99.90;;;;;;5017774;28;20081;-83
2022/01/28 14:11:39;;;;;;;27.00;4.05;;;8.70;99.90;;;;;;5028206;28;20041;-80
2022/01/28 14:14:24;;;;;;;16.95;3.38;;;8.40;99.90;;;;;;5001622;28;20057;-82
2022/01/28 14:16:52;;;;;;;22.63;3.40;;;8.20;99.90;;;;;;5010473;28;20492;-82
2022/01/28 14:19:18;;;;;;;13.30;2.72;;;8.00;99.90;;;;;;5036682;28;20041;-82
2022/01/28 14:21:45;;;;;;;18.73;4.35;;;7.90;99.90;;;;;;5039157;28;20088;-82
2022/01/28 14:24:14;;;;;;;21.23;3.55;;;7.70;99.90;;;;;;5048187;28;20099;-81
2022/01/28 14:26:43;;;;;;;22.33;3.35;;;7.70;99.90;;;;;;5049407;28;20133;-81
2022/01/28 14:31:36;;;;;;;20.15;3.35;;;7.60;99.90;;;;;;5041500;28;20108;-82